createdAt,value
2023-03-22T00:01:23.427Z,11.20
2023-03-22T00:03:51.702Z,11.70
2023-03-22T00:06:23.700Z,11.00
2023-03-22T00:08:53.850Z,11.00
2023-03-22T00:11:27.097Z,11.70
2023-03-22T00:13:54.853Z,10.90
2023-03-22T00:16:22.614Z,10.80
2023-03-22T00:18:49.456Z,11.20
2023-03-22T00:21:17.562Z,11.50
2023-03-22T00:23:44.898Z,10.70
2023-03-22T00:26:15.376Z,10.60
2023-03-22T00:28:42.431Z,10.70
2023-03-22T00:31:10.637Z,10.60
2023-03-22T00:33:37.536Z,10.50
2023-03-22T00:36:07.228Z,10.50
2023-03-22T00:38:42.425Z,10.50
2023-03-22T00:41:18.564Z,10.40
2023-03-22T00:43:46.864Z,10.40
2023-03-22T00:46:14.880Z,10.30
2023-03-22T00:48:46.349Z,10.30
2023-03-22T00:51:13.673Z,10.20
2023-03-22T00:53:43.051Z,10.20
2023-03-22T00:56:14.070Z,10.20
2023-03-22T00:58:42.060Z,10.10
2023-03-22T01:01:09.159Z,10.10
2023-03-22T01:03:36.192Z,10.40
2023-03-22T01:06:03.607Z,10.00
2023-03-22T01:08:33.413Z,9.90
2023-03-22T01:11:03.128Z,9.90
2023-03-22T01:13:32.068Z,10.00
2023-03-22T01:16:01.023Z,9.80
2023-03-22T01:18:27.750Z,9.80
2023-03-22T01:20:54.559Z,9.80
2023-03-22T01:23:21.250Z,9.70
2023-03-22T01:25:48.028Z,9.60
2023-03-22T01:30:42.556Z,9.60
2023-03-22T01:33:11.707Z,9.60
2023-03-22T01:35:42.216Z,9.80
2023-03-22T01:38:09.008Z,9.50
2023-03-22T01:40:35.900Z,9.50
2023-03-22T01:43:14.268Z,9.40
2023-03-22T01:45:42.270Z,9.40
2023-03-22T01:48:21.097Z,9.30
2023-03-22T01:51:11.896Z,9.30
2023-03-22T01:54:01.019Z,9.30
2023-03-22T01:56:35.878Z,9.20
2023-03-22T01:59:04.168Z,9.40
2023-03-22T02:01:31.121Z,9.10
2023-03-22T02:04:12.346Z,9.10
2023-03-22T02:06:39.656Z,9.10
2023-03-22T02:09:09.187Z,9.10
2023-03-22T02:11:42.804Z,9.10
2023-03-22T02:14:18.495Z,9.00
2023-03-22T02:16:57.276Z,9.00
2023-03-22T02:19:48.916Z,8.90
2023-03-22T02:22:42.643Z,8.90
2023-03-22T02:25:47.062Z,8.90
2023-03-22T02:28:36.837Z,8.80
2023-03-22T02:31:16.501Z,8.80
2023-03-22T02:33:52.159Z,8.70
2023-03-22T02:36:43.103Z,8.70
2023-03-22T02:39:26.595Z,8.70
2023-03-22T02:41:53.300Z,8.70
2023-03-22T02:44:32.393Z,8.90
2023-03-22T02:47:01.980Z,8.70
2023-03-22T02:49:28.625Z,8.50
2023-03-22T02:52:10.347Z,8.50
2023-03-22T02:54:57.338Z,8.80
2023-03-22T03:00:08.956Z,8.50
2023-03-22T03:02:36.766Z,8.50
2023-03-22T03:05:05.000Z,8.30
2023-03-22T03:07:31.862Z,8.40
2023-03-22T03:09:59.220Z,8.40
2023-03-22T03:12:28.144Z,8.60
2023-03-22T03:14:55.169Z,8.80
2023-03-22T03:17:31.133Z,8.30
2023-03-22T03:20:12.407Z,8.30
2023-03-22T03:22:42.388Z,8.30
2023-03-22T03:25:43.785Z,8.30
2023-03-22T03:28:38.434Z,8.30
2023-03-22T03:31:20.117Z,8.20
2023-03-22T03:33:56.062Z,8.20
2023-03-22T03:36:25.213Z,8.10
2023-03-22T03:38:55.185Z,8.10
2023-03-22T03:41:26.728Z,8.10
2023-03-22T03:43:56.059Z,8.10
2023-03-22T03:46:25.753Z,8.10
2023-03-22T03:48:54.965Z,8.10
2023-03-22T03:51:21.753Z,8.10
2023-03-22T03:53:50.784Z,8.00
2023-03-22T03:58:44.739Z,8.00
2023-03-22T04:01:11.616Z,8.00
2023-03-22T04:03:38.355Z,7.90
2023-03-22T04:06:08.899Z,7.90
2023-03-22T04:08:35.889Z,7.90
2023-03-22T04:11:02.712Z,7.80
2023-03-22T04:13:29.869Z,7.80
2023-03-22T04:15:58.049Z,7.70
2023-03-22T04:18:24.838Z,7.70
2023-03-22T04:20:53.643Z,7.60
2023-03-22T04:23:23.029Z,7.60
2023-03-22T04:25:50.461Z,7.70
2023-03-22T04:28:20.296Z,7.80
2023-03-22T04:30:52.389Z,7.50
2023-03-22T04:33:22.968Z,7.60
2023-03-22T04:35:56.696Z,7.50
2023-03-22T04:38:25.211Z,7.50
2023-03-22T04:40:52.030Z,7.50
2023-03-22T04:43:19.014Z,7.90
2023-03-22T04:45:50.718Z,7.50
2023-03-22T04:48:20.458Z,7.40
2023-03-22T04:50:47.165Z,7.40
2023-03-22T04:53:13.868Z,7.40
2023-03-22T04:55:43.182Z,7.40
2023-03-22T04:58:09.857Z,7.30
2023-03-22T05:00:39.166Z,7.40
2023-03-22T05:03:05.987Z,7.50
2023-03-22T05:05:32.740Z,7.30
2023-03-22T05:08:01.629Z,7.30
2023-03-22T05:10:30.516Z,7.30
2023-03-22T05:12:59.430Z,7.20
2023-03-22T05:15:32.348Z,7.40
2023-03-22T05:18:01.259Z,7.10
2023-03-22T05:20:27.926Z,6.80
2023-03-22T05:22:56.901Z,6.90
2023-03-22T05:25:23.674Z,7.20
2023-03-22T05:27:54.141Z,6.90
2023-03-22T05:30:23.411Z,7.00
2023-03-22T05:32:50.992Z,7.10
2023-03-22T05:35:18.811Z,7.00
2023-03-22T05:37:45.627Z,7.00
2023-03-22T05:40:14.772Z,7.00
2023-03-22T05:42:41.485Z,7.20
2023-03-22T05:45:11.046Z,7.10
2023-03-22T05:47:39.409Z,7.00
2023-03-22T05:50:08.406Z,7.40
2023-03-22T05:52:35.299Z,7.10
2023-03-22T05:55:02.024Z,7.90
2023-03-22T05:57:32.125Z,7.30
2023-03-22T05:59:59.313Z,7.10
2023-03-22T06:02:26.368Z,7.20
2023-03-22T06:04:55.320Z,7.10
2023-03-22T06:07:27.014Z,7.10
2023-03-22T06:09:53.762Z,7.10
2023-03-22T06:12:24.594Z,7.20
2023-03-22T06:14:54.234Z,7.30
2023-03-22T06:17:24.202Z,7.30
2023-03-22T06:19:53.013Z,7.30
2023-03-22T06:22:20.140Z,7.30
2023-03-22T06:24:49.960Z,7.30
2023-03-22T06:27:18.939Z,7.40
2023-03-22T06:32:19.746Z,7.40
2023-03-22T06:34:46.508Z,7.40
2023-03-22T06:37:13.191Z,7.40
2023-03-22T06:39:42.252Z,7.40
2023-03-22T06:42:08.943Z,7.60
2023-03-22T06:44:35.762Z,7.60
2023-03-22T06:47:05.317Z,7.60
2023-03-22T06:52:01.838Z,7.60
2023-03-22T06:54:30.809Z,7.80
2023-03-22T06:59:27.216Z,7.90
2023-03-22T07:01:56.241Z,7.90
2023-03-22T07:04:25.731Z,8.10
2023-03-22T07:06:52.740Z,8.00
2023-03-22T07:09:19.751Z,8.20
2023-03-22T07:11:46.832Z,8.30
2023-03-22T07:16:43.122Z,8.20
2023-03-22T07:19:09.800Z,8.40
2023-03-22T07:21:36.499Z,8.50
2023-03-22T07:24:03.627Z,8.80
2023-03-22T07:26:30.807Z,8.80
2023-03-22T07:28:57.879Z,9.10
2023-03-22T07:31:24.634Z,9.10
2023-03-22T07:33:54.015Z,9.40
2023-03-22T07:36:25.589Z,9.60
2023-03-22T07:38:52.687Z,9.90
2023-03-22T07:41:24.004Z,9.70
2023-03-22T07:43:58.387Z,10.20
2023-03-22T07:46:31.625Z,10.40
2023-03-22T07:48:58.594Z,10.80
2023-03-22T07:51:25.508Z,11.00
2023-03-22T07:53:54.377Z,11.40
2023-03-22T07:56:21.103Z,11.40
2023-03-22T07:58:50.311Z,11.80
2023-03-22T08:01:19.706Z,12.10
2023-03-22T08:03:46.609Z,12.40
2023-03-22T08:06:13.475Z,12.80
2023-03-22T08:08:42.732Z,13.10
2023-03-22T08:13:42.245Z,13.80
2023-03-22T08:16:09.114Z,14.00
2023-03-22T08:18:38.375Z,14.30
2023-03-22T08:21:05.436Z,14.70
2023-03-22T08:23:41.534Z,14.80
2023-03-22T08:26:10.660Z,15.00
2023-03-22T08:28:39.989Z,15.60
2023-03-22T08:31:13.916Z,15.50
2023-03-22T08:33:45.067Z,15.80
2023-03-22T08:36:22.702Z,16.10
2023-03-22T08:38:49.850Z,16.30
2023-03-22T08:41:16.634Z,16.60
2023-03-22T08:43:45.561Z,16.60
2023-03-22T08:46:14.820Z,17.40
2023-03-22T08:48:41.761Z,17.50
2023-03-22T08:51:10.750Z,17.60
2023-03-22T08:53:37.632Z,17.90
2023-03-22T08:56:04.939Z,18.10
2023-03-22T08:58:33.885Z,18.30
2023-03-22T09:01:00.674Z,18.60
2023-03-22T09:03:27.592Z,18.90
2023-03-22T09:05:54.561Z,19.10
2023-03-22T09:08:23.751Z,19.40
2023-03-22T09:10:53.477Z,19.70
2023-03-22T09:13:23.201Z,19.90
2023-03-22T09:15:53.349Z,20.10
2023-03-22T09:18:24.789Z,20.30
2023-03-22T09:20:52.611Z,20.50
2023-03-22T09:23:19.953Z,20.70
2023-03-22T09:25:49.979Z,20.90
2023-03-22T09:28:17.229Z,21.10
2023-03-22T09:30:44.980Z,21.30
2023-03-22T09:33:14.274Z,21.50
2023-03-22T09:35:43.143Z,21.60
2023-03-22T09:38:18.567Z,21.80
2023-03-22T09:41:00.338Z,21.70
2023-03-22T09:43:33.057Z,21.90
2023-03-22T09:46:05.499Z,22.00
2023-03-22T09:48:41.178Z,22.00
2023-03-22T09:51:26.004Z,22.20
2023-03-22T09:53:53.673Z,22.20
2023-03-22T09:56:23.111Z,22.40
2023-03-22T09:58:59.821Z,22.40
2023-03-22T10:01:47.041Z,22.40
2023-03-22T10:04:35.055Z,22.40
2023-03-22T10:07:07.113Z,22.40
2023-03-22T10:09:54.147Z,22.40
2023-03-22T10:12:30.452Z,22.60
2023-03-22T10:15:13.969Z,22.70
2023-03-22T10:17:46.272Z,22.80
2023-03-22T10:20:22.077Z,22.80
2023-03-22T10:22:53.589Z,23.00
2023-03-22T10:25:27.858Z,23.40
2023-03-22T10:27:54.642Z,23.30
2023-03-22T10:30:27.316Z,23.40
2023-03-22T10:33:13.374Z,23.50
2023-03-22T10:35:44.060Z,23.60
2023-03-22T10:38:22.663Z,23.80
2023-03-22T10:40:50.447Z,23.90
2023-03-22T10:43:30.321Z,24.00
2023-03-22T10:46:00.429Z,24.10
2023-03-22T10:48:34.342Z,24.20
2023-03-22T10:51:01.849Z,24.20
2023-03-22T10:54:05.585Z,24.10
2023-03-22T10:56:34.799Z,23.90
2023-03-22T10:59:01.494Z,23.50
2023-03-22T11:01:31.945Z,23.80
2023-03-22T11:04:07.281Z,23.70
2023-03-22T11:06:40.637Z,23.90
2023-03-22T11:09:14.650Z,24.10
2023-03-22T11:11:57.672Z,24.20
2023-03-22T11:14:31.868Z,24.50
2023-03-22T11:17:12.636Z,24.60
2023-03-22T11:19:52.603Z,24.70
2023-03-22T11:22:19.282Z,24.70
2023-03-22T11:24:47.530Z,24.70
2023-03-22T11:27:21.502Z,24.70
2023-03-22T11:29:53.284Z,24.60
2023-03-22T11:32:41.406Z,24.60
2023-03-22T11:35:22.258Z,24.60
2023-03-22T11:37:57.878Z,24.60
2023-03-22T11:40:29.755Z,24.70
2023-03-22T11:43:16.164Z,24.80
2023-03-22T11:45:44.594Z,25.00
2023-03-22T11:48:32.465Z,25.10
2023-03-22T11:51:09.106Z,25.20
2023-03-22T11:53:40.569Z,25.20
2023-03-22T11:56:12.938Z,25.30
2023-03-22T11:58:41.804Z,25.30
2023-03-22T12:01:19.832Z,25.40
2023-03-22T12:03:51.192Z,25.50
2023-03-22T12:06:38.420Z,25.50
2023-03-22T12:09:15.391Z,25.60
2023-03-22T12:11:48.877Z,25.60
2023-03-22T12:14:28.850Z,25.60
2023-03-22T12:17:14.589Z,25.60
2023-03-22T12:20:01.656Z,25.80
2023-03-22T12:22:43.150Z,25.90
2023-03-22T12:25:14.952Z,25.90
2023-03-22T12:27:51.064Z,26.00
2023-03-22T12:30:29.630Z,26.00
2023-03-22T12:33:24.559Z,25.90
2023-03-22T12:35:55.777Z,26.10
2023-03-22T12:38:27.613Z,26.20
2023-03-22T12:40:57.738Z,26.20
2023-03-22T12:43:33.307Z,26.20
2023-03-22T12:46:03.086Z,26.10
2023-03-22T12:48:46.447Z,26.00
2023-03-22T12:51:14.206Z,25.90
2023-03-22T12:53:52.493Z,25.90
2023-03-22T12:56:23.309Z,26.00
2023-03-22T12:58:54.673Z,25.90
2023-03-22T13:01:43.988Z,25.80
2023-03-22T13:04:28.032Z,24.60
2023-03-22T13:07:00.830Z,23.70
2023-03-22T13:09:48.717Z,23.40
2023-03-22T13:12:17.555Z,23.10
2023-03-22T13:14:50.723Z,22.90
2023-03-22T13:17:23.464Z,22.50
2023-03-22T13:20:01.898Z,22.50
2023-03-22T13:22:49.952Z,22.10
2023-03-22T13:25:19.705Z,22.10
2023-03-22T13:28:07.418Z,22.00
2023-03-22T13:30:47.761Z,22.00
2023-03-22T13:33:24.841Z,21.90
2023-03-22T13:35:55.020Z,21.80
2023-03-22T13:38:32.415Z,21.70
2023-03-22T13:41:24.247Z,21.50
2023-03-22T13:44:03.301Z,21.40
2023-03-22T13:46:39.244Z,21.40
2023-03-22T13:49:37.000Z,21.40
2023-03-22T13:52:10.536Z,21.30
2023-03-22T13:54:43.217Z,21.30
2023-03-22T13:57:38.639Z,21.20
2023-03-22T14:00:20.704Z,21.10
2023-03-22T14:02:51.601Z,21.00
2023-03-22T14:05:25.132Z,21.00
2023-03-22T14:07:57.488Z,20.90
2023-03-22T14:10:56.557Z,20.80
2023-03-22T14:13:32.316Z,20.70
2023-03-22T14:16:09.694Z,20.70
2023-03-22T14:18:42.497Z,20.60
2023-03-22T14:21:37.629Z,20.40
